Time;durP1;ratioP1;P1;durP2;ratioP2;P2;SDS_P1;SDS_P2;PMS_P1;PMS_P2;Temp;Humidity;BMP_temperature;BMP_pressure;BME280_temperature;BME280_humidity;BME280_pressure;Samples;Min_cycle;Max_cycle;Signal;HPM_P1;HPM_P2
2020/12/26 00:01:51;;;;;;;22.67;16.27;;;0.10;99.90;;;;;;5016709;28;20707;-41
2020/12/26 00:04:18;;;;;;;22.63;15.97;;;0.10;99.90;;;;;;5014437;28;20287;-40
2020/12/26 00:06:50;;;;;;;20.37;15.73;;;0.10;99.90;;;;;;5010839;28;20208;-41
2020/12/26 00:09:16;;;;;;;20.27;15.03;;;0.10;99.90;;;;;;5010623;28;20204;-41
2020/12/26 00:11:43;;;;;;;21.07;17.07;;;0.10;99.90;;;;;;5014903;28;20306;-41
2020/12/26 00:14:10;;;;;;;22.70;17.17;;;0.10;99.90;;;;;;5013919;28;20282;-41
2020/12/26 00:16:36;;;;;;;18.37;15.60;;;0.10;99.90;;;;;;5020732;28;20196;-41
2020/12/26 00:19:04;;;;;;;18.40;13.80;;;0.00;99.90;;;;;;5016580;28;20298;-41
2020/12/26 00:21:30;;;;;;;22.80;16.57;;;0.00;99.90;;;;;;5014969;28;20679;-41
2020/12/26 00:23:57;;;;;;;18.93;16.57;;;-0.10;99.90;;;;;;5015020;28;20243;-40
2020/12/26 00:26:23;;;;;;;20.70;15.90;;;-0.10;99.90;;;;;;5013988;28;20747;-41
2020/12/26 00:28:50;;;;;;;24.00;16.83;;;-0.10;99.90;;;;;;5016346;28;20249;-41
2020/12/26 00:31:17;;;;;;;18.70;15.73;;;-0.10;99.90;;;;;;5015655;28;20697;-41
2020/12/26 00:33:44;;;;;;;20.87;16.23;;;-0.10;99.90;;;;;;5014123;28;20196;-41
2020/12/26 00:36:12;;;;;;;20.87;16.43;;;-0.10;99.90;;;;;;5013140;28;20506;-41
2020/12/26 00:38:38;;;;;;;21.10;15.47;;;-0.10;99.90;;;;;;5014995;28;20225;-41
2020/12/26 00:41:05;;;;;;;22.23;15.97;;;-0.10;99.90;;;;;;5013431;28;20223;-41
2020/12/26 00:43:31;;;;;;;19.80;15.70;;;-0.10;99.90;;;;;;5014854;28;20206;-41
2020/12/26 00:45:58;;;;;;;17.60;13.93;;;-0.20;99.90;;;;;;5016712;28;20586;-41
2020/12/26 00:48:25;;;;;;;23.30;14.13;;;-0.20;99.90;;;;;;5020412;28;20246;-40
2020/12/26 00:50:51;;;;;;;23.50;15.53;;;-0.20;99.90;;;;;;4998305;28;20218;-40
2020/12/26 00:53:19;;;;;;;19.10;14.10;;;-0.20;99.90;;;;;;5000173;28;20209;-41
2020/12/26 00:55:46;;;;;;;20.47;16.10;;;-0.10;99.90;;;;;;5012207;28;20259;-41
2020/12/26 00:58:13;;;;;;;24.17;16.77;;;-0.10;99.90;;;;;;5013937;28;20219;-41
2020/12/26 01:00:40;;;;;;;22.83;17.10;;;-0.10;99.90;;;;;;5016073;28;20200;-41
2020/12/26 01:03:28;;;;;;;22.03;17.13;;;-0.20;99.90;;;;;;5012555;28;20204;-41
2020/12/26 01:05:54;;;;;;;22.67;15.83;;;-0.20;99.90;;;;;;5012831;28;20682;-41
2020/12/26 01:08:22;;;;;;;23.47;18.20;;;-0.10;99.90;;;;;;5017373;28;20219;-40
2020/12/26 01:10:48;;;;;;;25.80;17.90;;;-0.10;99.90;;;;;;5012850;28;20207;-41
2020/12/26 01:13:17;;;;;;;25.67;17.97;;;0.00;99.90;;;;;;5013920;28;20209;-41
2020/12/26 01:15:44;;;;;;;24.17;16.73;;;0.00;99.90;;;;;;5012446;28;20198;-41
2020/12/26 01:18:10;;;;;;;22.30;15.73;;;-0.10;99.90;;;;;;5012939;28;20642;-40
2020/12/26 01:20:36;;;;;;;17.93;15.17;;;-0.10;99.90;;;;;;5012987;28;20214;-41
2020/12/26 01:23:03;;;;;;;17.23;12.97;;;-0.10;99.90;;;;;;5014771;28;20319;-41
2020/12/26 01:25:30;;;;;;;17.83;13.87;;;-0.10;99.90;;;;;;5011272;28;20237;-41
2020/12/26 01:27:57;;;;;;;17.53;13.10;;;-0.10;99.90;;;;;;5015732;28;20195;-40
2020/12/26 01:30:23;;;;;;;17.67;13.50;;;-0.20;99.90;;;;;;5012558;28;20212;-41
2020/12/26 01:32:50;;;;;;;18.87;13.67;;;-0.10;99.90;;;;;;5013043;28;20319;-40
2020/12/26 01:35:17;;;;;;;16.47;12.90;;;-0.10;99.90;;;;;;5013686;28;20231;-41
2020/12/26 01:37:43;;;;;;;18.43;13.47;;;-0.10;99.90;;;;;;5016123;28;20587;-40
2020/12/26 01:40:10;;;;;;;18.97;13.43;;;-0.10;99.90;;;;;;5015186;28;20213;-42
2020/12/26 01:42:38;;;;;;;14.80;12.63;;;-0.10;99.90;;;;;;5014555;28;20245;-40
2020/12/26 01:45:06;;;;;;;17.40;13.23;;;-0.10;99.90;;;;;;5015235;28;20220;-40
2020/12/26 01:47:33;;;;;;;15.67;12.30;;;-0.20;99.90;;;;;;5012246;28;20224;-40
2020/12/26 01:50:00;;;;;;;17.53;12.57;;;-0.20;99.90;;;;;;5011890;28;20553;-40
2020/12/26 01:52:27;;;;;;;15.63;12.70;;;-0.20;99.90;;;;;;5012638;28;20237;-40
2020/12/26 01:54:54;;;;;;;17.57;12.17;;;-0.20;99.90;;;;;;5015808;28;20200;-40
2020/12/26 01:57:28;;;;;;;14.33;11.97;;;-0.10;99.90;;;;;;5012460;28;20341;-40
2020/12/26 01:59:56;;;;;;;17.60;13.33;;;-0.10;99.90;;;;;;5004533;28;20290;-40
2020/12/26 02:02:23;;;;;;;19.00;11.53;;;0.00;99.90;;;;;;5020553;28;20700;-40
2020/12/26 02:04:49;;;;;;;16.87;12.70;;;0.10;99.90;;;;;;5023029;28;20352;-40
2020/12/26 02:07:16;;;;;;;16.47;12.83;;;0.20;99.90;;;;;;5016226;28;20429;-40
2020/12/26 02:09:42;;;;;;;18.93;12.73;;;0.40;99.90;;;;;;5014427;28;20302;-40
2020/12/26 02:12:09;;;;;;;21.90;13.73;;;0.50;99.90;;;;;;5014127;28;20222;-40
2020/12/26 02:14:35;;;;;;;17.83;13.17;;;0.50;99.90;;;;;;5012390;28;20249;-40
2020/12/26 02:17:03;;;;;;;25.13;14.27;;;0.70;99.90;;;;;;5014033;28;20237;-40
2020/12/26 02:19:29;;;;;;;19.60;11.87;;;0.80;99.90;;;;;;5015780;28;20279;-40
2020/12/26 02:21:56;;;;;;;21.27;13.87;;;0.80;99.90;;;;;;5011948;28;20241;-40
2020/12/26 02:24:23;;;;;;;18.50;14.37;;;0.80;99.90;;;;;;5014751;28;20207;-40
2020/12/26 02:26:50;;;;;;;18.13;12.57;;;0.80;99.90;;;;;;5014572;28;20242;-40
2020/12/26 02:29:16;;;;;;;29.20;15.83;;;0.90;99.90;;;;;;5012121;28;20202;-40
2020/12/26 02:31:43;;;;;;;23.97;14.83;;;0.90;99.90;;;;;;5027295;28;20229;-40
2020/12/26 02:34:09;;;;;;;19.67;13.73;;;0.90;99.90;;;;;;5012740;28;20200;-40
2020/12/26 02:36:37;;;;;;;26.67;18.30;;;0.90;99.90;;;;;;5023111;28;20205;-40
2020/12/26 02:39:04;;;;;;;23.83;14.63;;;1.00;99.90;;;;;;5016719;28;20206;-40
2020/12/26 02:41:31;;;;;;;21.10;15.53;;;1.00;99.90;;;;;;4997425;28;20215;-40
2020/12/26 02:43:58;;;;;;;21.17;16.00;;;1.10;99.90;;;;;;5014940;28;20235;-40
2020/12/26 02:46:24;;;;;;;21.63;15.07;;;1.10;99.90;;;;;;5015565;28;20200;-40
2020/12/26 02:48:51;;;;;;;20.43;16.83;;;1.10;99.90;;;;;;4997347;28;20210;-40
2020/12/26 02:51:17;;;;;;;16.13;13.73;;;1.10;99.90;;;;;;5031476;28;20230;-40
2020/12/26 02:53:44;;;;;;;22.13;14.87;;;1.10;99.90;;;;;;5031116;28;20296;-40
2020/12/26 02:56:10;;;;;;;17.53;12.37;;;1.10;99.90;;;;;;5031297;28;20779;-40
2020/12/26 02:58:39;;;;;;;20.77;12.87;;;1.10;99.90;;;;;;5029420;28;20268;-40
2020/12/26 03:01:05;;;;;;;15.17;12.13;;;1.10;99.90;;;;;;5030243;28;20277;-40
2020/12/26 03:03:32;;;;;;;17.47;12.17;;;1.10;99.90;;;;;;5017244;28;20219;-40
2020/12/26 03:05:59;;;;;;;16.97;12.20;;;1.20;99.90;;;;;;5025238;28;20217;-40
2020/12/26 03:08:25;;;;;;;13.37;11.23;;;1.30;99.90;;;;;;5031122;28;20724;-40
2020/12/26 03:10:52;;;;;;;16.30;11.57;;;1.30;99.90;;;;;;5031405;28;20322;-40
2020/12/26 03:13:18;;;;;;;15.23;10.47;;;1.40;99.90;;;;;;5031501;28;20564;-40
2020/12/26 03:15:46;;;;;;;15.37;10.17;;;1.40;99.90;;;;;;5032783;28;20342;-40
2020/12/26 03:18:12;;;;;;;23.10;14.60;;;1.30;99.90;;;;;;5030992;28;20495;-40
2020/12/26 03:20:39;;;;;;;17.47;13.40;;;1.40;99.90;;;;;;5030619;28;20198;-40
2020/12/26 03:23:05;;;;;;;20.17;13.70;;;1.40;99.90;;;;;;5030927;28;20289;-40
2020/12/26 03:25:33;;;;;;;18.00;10.67;;;1.40;99.90;;;;;;5029199;28;20222;-40
2020/12/26 03:27:59;;;;;;;15.37;11.00;;;1.40;99.90;;;;;;5030300;28;20218;-40
2020/12/26 03:30:26;;;;;;;15.93;11.47;;;1.40;99.90;;;;;;5030226;28;20221;-40
2020/12/26 03:32:53;;;;;;;16.53;12.07;;;1.50;99.90;;;;;;5030876;28;20480;-40
2020/12/26 03:35:20;;;;;;;15.13;11.67;;;1.60;99.90;;;;;;5028986;28;20641;-41
2020/12/26 03:37:46;;;;;;;16.30;13.17;;;1.60;99.90;;;;;;4995578;28;20717;-40
2020/12/26 03:40:13;;;;;;;20.20;12.97;;;1.60;99.90;;;;;;5010988;28;20608;-40
2020/12/26 03:42:40;;;;;;;12.73;10.83;;;1.70;99.90;;;;;;5012435;28;20219;-40
2020/12/26 03:45:07;;;;;;;17.27;11.40;;;1.70;99.90;;;;;;5014959;28;20682;-40
2020/12/26 03:47:34;;;;;;;17.67;10.77;;;1.70;99.90;;;;;;5029757;28;20198;-40
2020/12/26 03:50:01;;;;;;;20.57;12.67;;;1.70;99.90;;;;;;5034517;28;20209;-40
2020/12/26 03:52:28;;;;;;;18.77;12.33;;;1.70;99.90;;;;;;5034572;28;20219;-40
2020/12/26 03:54:54;;;;;;;16.90;12.33;;;1.60;99.90;;;;;;5034911;28;20322;-40
2020/12/26 03:57:20;;;;;;;18.20;11.20;;;1.70;99.90;;;;;;5023769;28;20223;-40
2020/12/26 03:59:47;;;;;;;18.93;12.60;;;1.80;99.90;;;;;;5014821;28;20203;-40
2020/12/26 04:02:14;;;;;;;19.13;12.97;;;1.70;99.90;;;;;;5014757;28;20554;-40
2020/12/26 04:04:40;;;;;;;19.40;15.27;;;1.70;99.90;;;;;;5014535;28;20568;-40
2020/12/26 04:07:09;;;;;;;18.73;13.60;;;1.70;99.90;;;;;;5018891;28;20210;-40
2020/12/26 04:09:35;;;;;;;18.43;14.17;;;1.80;99.90;;;;;;5014396;28;20235;-40
2020/12/26 04:12:02;;;;;;;21.93;13.33;;;1.90;99.90;;;;;;5014272;28;20228;-40
2020/12/26 04:14:28;;;;;;;17.60;12.87;;;1.90;99.90;;;;;;5014512;28;20288;-40
2020/12/26 04:16:56;;;;;;;19.87;14.77;;;1.90;99.90;;;;;;5014046;28;20203;-40
2020/12/26 04:19:22;;;;;;;21.40;14.90;;;1.90;99.90;;;;;;5025971;28;20203;-40
2020/12/26 04:21:49;;;;;;;16.27;12.73;;;2.00;99.90;;;;;;5013899;28;20223;-40
2020/12/26 04:24:16;;;;;;;19.07;14.50;;;2.00;99.90;;;;;;5014302;28;20250;-40
2020/12/26 04:26:43;;;;;;;13.53;12.13;;;2.10;99.90;;;;;;5022310;28;20206;-41
2020/12/26 04:29:09;;;;;;;14.63;12.77;;;2.10;99.90;;;;;;5032317;28;20219;-40
2020/12/26 04:31:36;;;;;;;14.53;13.00;;;2.10;99.90;;;;;;5014371;28;20316;-40
2020/12/26 04:34:02;;;;;;;15.03;12.87;;;2.20;99.90;;;;;;5014258;28;20310;-40
2020/12/26 04:36:29;;;;;;;17.00;11.93;;;2.20;99.90;;;;;;5015067;28;20301;-40
2020/12/26 04:38:56;;;;;;;19.57;13.30;;;2.10;99.90;;;;;;5032268;28;20277;-40
2020/12/26 04:41:24;;;;;;;13.63;12.10;;;2.00;99.90;;;;;;5033516;28;20234;-40
2020/12/26 04:43:53;;;;;;;21.20;13.70;;;2.10;99.90;;;;;;5033639;28;20456;-40
2020/12/26 04:46:20;;;;;;;18.67;14.03;;;2.10;99.90;;;;;;5018768;28;20286;-40
2020/12/26 04:49:01;;;;;;;18.13;14.30;;;2.00;99.90;;;;;;5033364;28;20196;-41
2020/12/26 04:51:31;;;;;;;18.97;14.07;;;1.90;99.90;;;;;;5032709;28;20790;-40
2020/12/26 04:54:06;;;;;;;19.57;14.03;;;1.90;99.90;;;;;;5032149;28;20242;-40
2020/12/26 04:56:40;;;;;;;25.23;13.83;;;1.90;99.90;;;;;;5033348;28;20693;-40
2020/12/26 04:59:08;;;;;;;18.07;15.30;;;1.90;99.90;;;;;;5018802;28;20236;-40
2020/12/26 05:01:37;;;;;;;17.90;15.53;;;2.00;99.90;;;;;;5032956;28;20229;-40
2020/12/26 05:04:04;;;;;;;16.13;12.70;;;1.90;99.90;;;;;;5033347;28;20256;-40
2020/12/26 05:06:31;;;;;;;20.50;13.47;;;1.90;99.90;;;;;;5062734;22;20314;-40
2020/12/26 05:08:58;;;;;;;20.87;13.67;;;1.90;99.90;;;;;;5073279;28;20254;-40
2020/12/26 05:11:25;;;;;;;23.07;14.90;;;1.90;99.90;;;;;;5073016;28;20215;-40
2020/12/26 05:13:52;;;;;;;16.90;13.93;;;1.90;99.90;;;;;;5071792;28;20296;-39
2020/12/26 05:16:19;;;;;;;17.90;14.33;;;1.80;99.90;;;;;;5056127;28;20276;-40
2020/12/26 05:18:49;;;;;;;27.30;15.17;;;1.80;99.90;;;;;;5053567;28;20470;-40
2020/12/26 05:21:23;;;;;;;19.27;15.50;;;1.80;99.90;;;;;;5058091;28;20231;-39
2020/12/26 05:24:02;;;;;;;19.97;15.43;;;1.80;99.90;;;;;;5073478;28;20208;-40
2020/12/26 05:26:31;;;;;;;22.77;14.53;;;1.90;99.90;;;;;;5057306;28;20203;-39
2020/12/26 05:29:02;;;;;;;21.10;15.83;;;1.90;99.90;;;;;;5073048;28;20208;-40
2020/12/26 05:31:45;;;;;;;23.10;16.10;;;2.00;99.90;;;;;;5073038;28;20706;-39
2020/12/26 05:34:12;;;;;;;19.63;14.03;;;1.90;99.90;;;;;;5073065;28;20225;-40
2020/12/26 05:36:39;;;;;;;17.37;12.70;;;2.00;99.90;;;;;;5073065;28;20198;-39
2020/12/26 05:39:07;;;;;;;18.40;13.07;;;2.00;99.90;;;;;;5057017;28;20231;-40
2020/12/26 05:41:37;;;;;;;15.87;12.97;;;2.10;99.90;;;;;;5053063;28;20210;-40
2020/12/26 05:44:04;;;;;;;14.97;10.80;;;2.20;99.90;;;;;;5052724;28;20206;-40
2020/12/26 05:46:31;;;;;;;17.00;11.73;;;2.30;99.90;;;;;;5062422;28;20293;-39
2020/12/26 05:48:57;;;;;;;17.20;12.03;;;2.40;99.90;;;;;;5069579;28;20324;-40
2020/12/26 05:51:25;;;;;;;14.20;11.63;;;2.40;99.90;;;;;;5072515;28;20309;-39
2020/12/26 05:53:55;;;;;;;16.00;11.23;;;2.40;99.90;;;;;;5072160;28;20555;-40
2020/12/26 05:56:23;;;;;;;13.10;11.70;;;2.40;99.90;;;;;;5072640;28;20339;-40
2020/12/26 05:58:50;;;;;;;14.17;11.67;;;2.50;99.90;;;;;;5062798;28;20229;-39
2020/12/26 06:01:21;;;;;;;17.27;11.10;;;2.40;99.90;;;;;;5052204;28;20226;-40
2020/12/26 06:03:48;;;;;;;16.40;11.93;;;2.50;99.90;;;;;;5052272;28;20206;-40
2020/12/26 06:06:15;;;;;;;15.13;11.37;;;2.50;99.90;;;;;;5051730;28;20309;-41
2020/12/26 06:08:42;;;;;;;14.27;10.80;;;2.50;99.90;;;;;;5055325;28;20250;-40
2020/12/26 06:11:09;;;;;;;18.07;11.83;;;2.40;99.90;;;;;;5052768;28;20225;-40
2020/12/26 06:13:37;;;;;;;13.70;11.80;;;2.40;99.90;;;;;;5051595;28;20202;-41
2020/12/26 06:16:09;;;;;;;16.73;13.33;;;2.50;99.90;;;;;;5051607;28;20213;-40
2020/12/26 06:18:41;;;;;;;13.37;11.43;;;2.50;99.90;;;;;;5051940;28;20555;-41
2020/12/26 06:21:08;;;;;;;13.37;11.17;;;2.50;99.90;;;;;;5059543;28;20224;-40
2020/12/26 06:23:38;;;;;;;16.17;12.03;;;2.40;99.90;;;;;;5052218;28;20222;-40
2020/12/26 06:26:05;;;;;;;14.80;10.07;;;2.40;99.90;;;;;;5051984;28;20564;-41
2020/12/26 06:28:34;;;;;;;21.30;12.07;;;2.40;99.90;;;;;;5056417;28;20231;-41
2020/12/26 06:31:04;;;;;;;14.17;10.23;;;2.40;99.90;;;;;;5053098;28;20261;-40
2020/12/26 06:33:38;;;;;;;12.47;10.30;;;2.40;99.90;;;;;;5054819;28;20229;-40
2020/12/26 06:36:06;;;;;;;16.33;10.30;;;2.40;99.90;;;;;;5064533;28;20217;-41
2020/12/26 06:38:33;;;;;;;12.80;10.93;;;2.30;99.90;;;;;;5071975;28;20771;-40
2020/12/26 06:41:02;;;;;;;14.93;10.27;;;2.40;99.90;;;;;;5066006;28;20227;-40
2020/12/26 06:43:49;;;;;;;13.03;8.83;;;2.30;99.90;;;;;;5053187;28;20292;-40
2020/12/26 06:46:41;;;;;;;15.77;9.17;;;2.20;99.90;;;;;;5052405;28;20457;-41
2020/12/26 06:49:25;;;;;;;9.77;8.30;;;2.40;99.90;;;;;;5055566;28;20190;-41
2020/12/26 06:51:53;;;;;;;14.90;8.70;;;2.20;99.90;;;;;;5051987;28;20257;-40
2020/12/26 06:54:41;;;;;;;9.13;7.97;;;2.20;99.90;;;;;;5054795;28;20213;-40
2020/12/26 06:57:08;;;;;;;12.77;8.37;;;2.30;99.90;;;;;;5051407;28;20270;-40
2020/12/26 06:59:35;;;;;;;16.60;8.20;;;2.30;99.90;;;;;;5055285;28;20284;-40
2020/12/26 07:02:07;;;;;;;13.73;9.70;;;2.30;99.90;;;;;;5031767;28;20225;-40
2020/12/26 07:04:38;;;;;;;11.43;9.73;;;2.20;99.90;;;;;;5051895;28;20273;-40
2020/12/26 07:07:06;;;;;;;13.07;10.27;;;2.10;99.90;;;;;;5064740;28;20202;-40
2020/12/26 07:09:47;;;;;;;10.17;8.20;;;2.10;99.90;;;;;;5059989;28;20267;-40
2020/12/26 07:12:14;;;;;;;9.47;8.57;;;2.10;99.90;;;;;;5072042;28;20713;-40
2020/12/26 07:14:42;;;;;;;16.13;8.47;;;2.10;99.90;;;;;;5072066;28;20235;-40
2020/12/26 07:17:25;;;;;;;18.57;9.23;;;2.10;99.90;;;;;;5036352;28;20297;-40
2020/12/26 07:19:52;;;;;;;12.63;9.43;;;2.10;99.90;;;;;;5052251;28;20293;-40
2020/12/26 07:22:22;;;;;;;15.43;8.87;;;2.20;99.90;;;;;;5052263;28;20228;-40
2020/12/26 07:24:50;;;;;;;13.93;9.67;;;2.20;99.90;;;;;;5052080;28;20293;-40
2020/12/26 07:27:28;;;;;;;8.67;7.73;;;2.20;99.90;;;;;;5069598;28;20268;-40
2020/12/26 07:30:00;;;;;;;10.43;7.53;;;2.20;99.90;;;;;;5071574;28;20609;-40
2020/12/26 07:32:50;;;;;;;10.60;7.50;;;2.20;99.90;;;;;;5071472;28;20220;-40
2020/12/26 07:35:39;;;;;;;15.03;7.80;;;2.20;99.90;;;;;;5071814;28;20682;-40
2020/12/26 07:38:12;;;;;;;17.00;8.37;;;2.20;99.90;;;;;;5071497;28;20226;-40
2020/12/26 07:40:41;;;;;;;10.97;7.50;;;2.20;99.90;;;;;;5066909;28;20293;-40
2020/12/26 07:43:09;;;;;;;8.07;6.80;;;2.30;99.90;;;;;;5052023;28;20213;-40
2020/12/26 07:45:37;;;;;;;7.77;6.97;;;2.20;99.90;;;;;;5052116;28;20329;-40
2020/12/26 07:48:05;;;;;;;12.77;8.40;;;2.30;99.90;;;;;;5070921;28;20301;-40
2020/12/26 07:50:33;;;;;;;9.37;7.87;;;2.30;99.90;;;;;;5069352;28;20197;-40
2020/12/26 07:53:01;;;;;;;10.17;8.53;;;2.30;99.90;;;;;;5051453;28;20204;-39
2020/12/26 07:55:29;;;;;;;11.50;8.63;;;2.30;99.90;;;;;;5057956;28;20198;-40
2020/12/26 07:58:03;;;;;;;13.00;8.67;;;2.40;99.90;;;;;;5056658;28;20214;-40
2020/12/26 08:00:31;;;;;;;14.70;8.33;;;2.50;99.90;;;;;;5057161;28;20210;-40
2020/12/26 08:02:59;;;;;;;11.53;8.10;;;2.50;99.90;;;;;;5051405;28;20214;-42
2020/12/26 08:05:28;;;;;;;10.80;7.50;;;2.40;99.90;;;;;;5056580;28;20223;-40
2020/12/26 08:07:54;;;;;;;9.87;7.73;;;2.40;99.90;;;;;;5051958;28;20294;-40
2020/12/26 08:10:22;;;;;;;12.00;8.80;;;2.40;99.90;;;;;;5051570;28;20238;-39
2020/12/26 08:12:51;;;;;;;12.93;8.20;;;2.50;99.90;;;;;;5050772;28;20244;-40
2020/12/26 08:15:22;;;;;;;10.97;8.27;;;2.50;99.90;;;;;;5067704;28;20295;-40
2020/12/26 08:17:52;;;;;;;10.60;8.20;;;2.50;99.90;;;;;;5066359;28;20214;-39
2020/12/26 08:20:21;;;;;;;14.37;7.73;;;2.60;99.90;;;;;;5051188;28;20336;-40
2020/12/26 08:22:48;;;;;;;11.33;7.40;;;2.60;99.90;;;;;;5051026;28;20226;-40
2020/12/26 08:25:16;;;;;;;12.77;6.60;;;2.60;99.90;;;;;;5050000;28;20194;-41
2020/12/26 08:27:42;;;;;;;7.83;7.03;;;2.60;99.90;;;;;;5049487;28;20198;-40
2020/12/26 08:30:12;;;;;;;8.73;6.93;;;2.70;99.90;;;;;;5054400;28;20553;-41
2020/12/26 08:32:50;;;;;;;8.20;6.97;;;2.70;99.90;;;;;;5056538;28;20318;-41
2020/12/26 08:35:19;;;;;;;9.60;7.77;;;2.60;99.90;;;;;;5058636;28;20205;-40
2020/12/26 08:37:47;;;;;;;7.77;7.03;;;2.70;99.90;;;;;;5054551;28;20245;-40
2020/12/26 08:40:16;;;;;;;8.37;7.07;;;2.80;99.90;;;;;;5064607;28;20253;-40
2020/12/26 08:42:43;;;;;;;13.87;7.13;;;2.90;99.90;;;;;;5074361;28;20226;-40
2020/12/26 08:45:26;;;;;;;9.27;6.57;;;3.00;99.90;;;;;;5068286;28;20637;-40
2020/12/26 08:47:55;;;;;;;11.57;7.93;;;3.10;99.90;;;;;;5060115;28;20202;-40
2020/12/26 08:50:22;;;;;;;29.00;15.10;;;3.10;99.90;;;;;;5060060;28;20621;-40
2020/12/26 08:53:02;;;;;;;21.67;12.63;;;3.10;99.90;;;;;;5063395;28;20256;-41
2020/12/26 08:55:29;;;;;;;12.80;7.43;;;3.10;99.90;;;;;;5046029;28;20205;-40
2020/12/26 08:57:59;;;;;;;9.33;7.10;;;3.20;99.90;;;;;;5074945;28;20315;-40
2020/12/26 09:00:28;;;;;;;8.83;6.73;;;3.10;99.90;;;;;;5074532;28;20672;-41
2020/12/26 09:02:55;;;;;;;11.67;6.87;;;3.10;99.90;;;;;;5069218;28;20301;-40
2020/12/26 09:05:24;;;;;;;9.33;7.03;;;3.00;99.90;;;;;;5071625;28;20216;-40
2020/12/26 09:08:04;;;;;;;7.97;7.27;;;3.10;99.90;;;;;;5072254;28;20193;-41
2020/12/26 09:10:31;;;;;;;10.23;6.17;;;3.20;99.90;;;;;;5042546;28;20189;-41
2020/12/26 09:13:06;;;;;;;7.80;6.30;;;3.20;99.90;;;;;;5019416;28;20195;-40
2020/12/26 09:15:53;;;;;;;7.50;6.80;;;3.30;99.90;;;;;;5057905;28;20202;-41
2020/12/26 09:18:23;;;;;;;8.97;7.20;;;3.30;99.90;;;;;;5058212;28;20215;-40
2020/12/26 09:20:52;;;;;;;10.67;7.93;;;3.30;99.90;;;;;;5074484;28;20230;-40
2020/12/26 09:23:22;;;;;;;9.37;8.43;;;3.30;99.90;;;;;;5054696;28;20221;-41
2020/12/26 09:25:52;;;;;;;10.63;8.60;;;3.40;99.90;;;;;;5065463;28;20218;-41
2020/12/26 09:28:19;;;;;;;10.20;9.20;;;3.40;99.90;;;;;;5068375;28;20662;-40
2020/12/26 09:30:49;;;;;;;12.40;8.10;;;3.40;99.90;;;;;;5057116;28;20551;-40
2020/12/26 09:33:29;;;;;;;12.67;9.20;;;3.50;99.90;;;;;;5035733;28;20641;-40
2020/12/26 09:36:10;;;;;;;9.80;8.80;;;3.60;99.90;;;;;;5057897;28;20226;-40
2020/12/26 09:38:39;;;;;;;14.47;10.00;;;3.60;99.90;;;;;;5072370;28;20618;-41
2020/12/26 09:41:13;;;;;;;14.83;11.50;;;3.70;99.90;;;;;;5072974;28;20253;-41
2020/12/26 09:43:40;;;;;;;11.53;10.33;;;3.70;99.90;;;;;;5056899;28;20207;-40
2020/12/26 09:46:06;;;;;;;12.23;10.50;;;3.80;99.90;;;;;;5066057;28;20198;-40
2020/12/26 09:48:34;;;;;;;15.47;11.60;;;3.80;99.90;;;;;;5060608;28;20222;-42
2020/12/26 09:51:00;;;;;;;15.27;11.27;;;3.80;99.90;;;;;;5053150;28;20637;-40
2020/12/26 09:53:27;;;;;;;18.90;11.83;;;3.80;99.90;;;;;;5060285;28;20200;-41
2020/12/26 09:55:53;;;;;;;16.97;12.50;;;3.90;99.90;;;;;;5062592;28;20194;-41
2020/12/26 09:58:20;;;;;;;16.60;11.37;;;3.90;99.90;;;;;;5068303;28;20774;-41
2020/12/26 10:00:47;;;;;;;17.93;12.57;;;3.90;99.90;;;;;;5061589;28;20689;-40
2020/12/26 10:03:14;;;;;;;14.73;13.10;;;3.90;99.90;;;;;;5055971;28;20230;-40
2020/12/26 10:05:42;;;;;;;13.83;12.40;;;3.90;99.90;;;;;;5053846;28;20771;-41
2020/12/26 10:08:08;;;;;;;18.03;13.77;;;3.80;99.90;;;;;;5057727;28;20669;-40
2020/12/26 10:10:35;;;;;;;16.63;14.23;;;3.80;99.90;;;;;;5051939;28;20233;-40
2020/12/26 10:13:01;;;;;;;13.97;12.43;;;3.80;99.90;;;;;;5053790;28;20211;-41
2020/12/26 10:15:28;;;;;;;20.17;12.57;;;3.90;99.90;;;;;;5068521;28;20201;-41
2020/12/26 10:17:55;;;;;;;20.77;13.23;;;3.80;99.90;;;;;;5071376;28;20253;-42
2020/12/26 10:20:21;;;;;;;16.17;11.57;;;3.90;99.90;;;;;;5071606;28;20198;-41
2020/12/26 10:22:49;;;;;;;13.57;11.37;;;3.90;99.90;;;;;;5062798;28;20242;-41
2020/12/26 10:25:15;;;;;;;14.97;11.73;;;4.00;99.90;;;;;;5052735;28;20201;-41
2020/12/26 10:27:42;;;;;;;14.13;12.67;;;4.10;99.90;;;;;;5056439;28;20202;-41
2020/12/26 10:30:08;;;;;;;16.07;11.90;;;4.20;99.90;;;;;;5053884;28;20237;-41
2020/12/26 10:32:35;;;;;;;16.40;13.47;;;4.20;99.90;;;;;;5056644;28;20210;-41
2020/12/26 10:35:01;;;;;;;14.87;13.23;;;4.30;99.90;;;;;;5052057;28;20781;-40
2020/12/26 10:37:29;;;;;;;16.03;13.13;;;4.20;99.90;;;;;;5054435;28;20578;-41
2020/12/26 10:39:57;;;;;;;19.90;13.73;;;4.20;99.90;;;;;;5053166;28;20658;-42
2020/12/26 10:42:23;;;;;;;20.37;13.60;;;4.30;99.90;;;;;;5058044;28;20473;-41
2020/12/26 10:44:50;;;;;;;16.57;12.60;;;4.40;99.90;;;;;;5053635;28;20653;-41
2020/12/26 10:47:16;;;;;;;15.50;13.63;;;4.50;99.90;;;;;;5055307;28;20229;-42
2020/12/26 10:49:43;;;;;;;16.40;12.83;;;4.50;99.90;;;;;;5053499;28;20190;-41
2020/12/26 10:52:10;;;;;;;16.63;13.83;;;4.50;99.90;;;;;;5037463;28;20236;-41
2020/12/26 10:54:36;;;;;;;18.93;13.63;;;4.40;99.90;;;;;;5040485;28;20632;-40
2020/12/26 10:57:04;;;;;;;18.17;15.07;;;4.60;99.90;;;;;;5050699;28;20290;-41
2020/12/26 10:59:30;;;;;;;18.57;15.93;;;4.40;99.90;;;;;;5052053;28;20426;-40
2020/12/26 11:01:57;;;;;;;21.53;15.33;;;4.40;99.90;;;;;;5061562;28;20214;-40
2020/12/26 11:04:23;;;;;;;18.93;15.70;;;4.30;99.90;;;;;;5066762;28;20194;-41
2020/12/26 11:06:50;;;;;;;20.67;17.23;;;4.30;99.90;;;;;;5045754;28;21053;-41
2020/12/26 11:09:17;;;;;;;23.60;18.20;;;4.30;99.90;;;;;;5046033;28;20197;-40
2020/12/26 11:11:47;;;;;;;19.93;18.03;;;4.20;99.90;;;;;;5051313;28;20220;-42
2020/12/26 11:14:15;;;;;;;21.77;19.23;;;4.30;99.90;;;;;;5050756;28;20292;-41
2020/12/26 11:16:46;;;;;;;19.80;17.87;;;4.30;99.90;;;;;;5060150;28;20197;-40
2020/12/26 11:19:12;;;;;;;22.03;16.70;;;4.40;99.90;;;;;;5070837;28;20238;-41
2020/12/26 11:21:39;;;;;;;19.27;16.50;;;4.40;99.90;;;;;;5059733;28;20653;-41
2020/12/26 11:24:05;;;;;;;20.93;17.63;;;4.30;99.90;;;;;;5051542;28;20219;-41
2020/12/26 11:26:32;;;;;;;19.47;15.67;;;4.20;99.90;;;;;;5048734;28;20209;-41
2020/12/26 11:28:58;;;;;;;18.00;16.03;;;4.30;99.90;;;;;;5057877;28;20214;-40
2020/12/26 11:31:26;;;;;;;20.50;16.70;;;4.30;99.90;;;;;;5056985;28;20280;-41
2020/12/26 11:33:53;;;;;;;18.47;15.77;;;4.40;99.90;;;;;;5053863;28;20232;-41
2020/12/26 11:36:20;;;;;;;15.83;14.27;;;4.40;99.90;;;;;;5055992;28;20664;-42
2020/12/26 11:38:47;;;;;;;14.83;13.33;;;4.40;99.90;;;;;;5050574;28;20711;-41
2020/12/26 11:41:16;;;;;;;19.03;13.00;;;4.40;99.90;;;;;;5050428;28;20218;-40
2020/12/26 11:43:42;;;;;;;18.83;14.43;;;4.40;99.90;;;;;;5060222;28;20198;-41
2020/12/26 11:46:09;;;;;;;13.73;12.27;;;4.40;99.90;;;;;;5064428;28;20197;-41
2020/12/26 11:48:37;;;;;;;16.87;13.53;;;4.40;99.90;;;;;;5067165;28;20265;-41
2020/12/26 11:51:04;;;;;;;13.83;12.20;;;4.40;99.90;;;;;;5051295;28;20633;-40
2020/12/26 11:53:30;;;;;;;13.97;12.43;;;4.50;99.90;;;;;;5055760;28;20280;-43
2020/12/26 11:55:57;;;;;;;18.47;11.73;;;4.40;99.90;;;;;;5051302;28;20278;-41
2020/12/26 11:58:24;;;;;;;12.10;10.67;;;4.40;99.90;;;;;;5053404;28;20249;-41
2020/12/26 12:00:51;;;;;;;20.90;13.10;;;4.40;99.90;;;;;;5050528;28;20262;-41
2020/12/26 12:03:18;;;;;;;13.03;10.40;;;4.40;99.90;;;;;;5066195;28;20194;-41
2020/12/26 12:05:46;;;;;;;12.07;10.83;;;4.40;99.90;;;;;;5074960;28;20348;-41
2020/12/26 12:08:12;;;;;;;13.67;12.07;;;4.40;99.90;;;;;;5048301;28;20199;-41
2020/12/26 12:10:39;;;;;;;12.90;11.67;;;4.40;99.90;;;;;;5072344;28;20490;-42
2020/12/26 12:13:07;;;;;;;13.13;10.27;;;4.40;99.90;;;;;;5053576;28;20204;-41
2020/12/26 12:15:34;;;;;;;10.40;9.37;;;4.40;99.90;;;;;;5054409;28;20688;-41
2020/12/26 12:18:01;;;;;;;15.87;11.03;;;4.30;99.90;;;;;;5053984;28;20223;-41
2020/12/26 12:20:28;;;;;;;9.67;8.80;;;4.40;99.90;;;;;;5055126;28;20210;-42
2020/12/26 12:22:57;;;;;;;13.33;9.30;;;4.50;99.90;;;;;;5053926;28;20206;-41
2020/12/26 12:25:24;;;;;;;10.57;8.07;;;4.60;99.90;;;;;;5070830;28;20207;-42
2020/12/26 12:27:51;;;;;;;12.77;9.63;;;4.60;99.90;;;;;;5053860;28;20693;-41
2020/12/26 12:30:17;;;;;;;8.57;7.57;;;4.60;99.90;;;;;;5058437;28;20199;-41
2020/12/26 12:32:44;;;;;;;10.60;8.50;;;4.60;99.90;;;;;;5055571;28;20353;-41
2020/12/26 12:35:12;;;;;;;8.57;7.70;;;4.60;99.90;;;;;;5069598;28;20216;-41
2020/12/26 12:37:38;;;;;;;10.90;7.53;;;4.70;99.90;;;;;;5073696;28;20213;-41
2020/12/26 12:40:07;;;;;;;11.93;8.07;;;4.70;99.90;;;;;;5062568;28;20221;-41
2020/12/26 12:42:33;;;;;;;7.90;6.33;;;4.60;99.90;;;;;;5053044;28;20216;-41
2020/12/26 12:45:00;;;;;;;10.53;5.77;;;4.60;99.90;;;;;;5073691;28;20206;-41